Airfield :
LOGIN :

Register | Disclaimer

   EN    FR    IT 

 










Legend :    VFR   Marginal VFR   IFR   Intensive IFR   Very Intensive IFR
Visi :
Ceiling :
>= 8 km
>= 3000ft
5 to 8 km
1000 to 3000 ft
1500m to 5 km
500 to 1000 ft
800 to 1500m
200 to 500 ft
< 800m
< 200 ft
Symbols :   Thunderstorms  Fog  Heavy snow  Heavy precipitations  Wind > 20 kt
SIGMETs :     Misc.  Thunderstorms  Icing  Turbulence  Mountain Waves  Volcanic Ashes






- Airport Elevation : 79 ft
- IATA code : NSY


LICZ - Sigonella (Mil) Catania

CURRENT METAR :
  • 031755Z 25014KT 9999 SCT030 BKN080 12/12 Q1004 RMK BKN VIS MIN 9999 WIND THR28 26013KT WIND THR10 25015KT A2967 BLU

EXPIRED METARs :
  • 031655Z 25013KT 9999 SCT030 BKN070 13/12 Q1004 RMK BKN VIS MIN 9999 WIND THR28 25013KT WIND THR10 25012KT A2966 BLU
  • 031555Z 29006KT 8000 SCT020 BKN070 13/13 Q1004 RMK BKN VIS MIN 8000 WIND THR28 30007KT WIND THR10 30006KT A2966 BLU

TAF TAF LICZ
Valid from the 03 at 18:00 until the 04 at 18:00 UTC


031700Z 0318/0418 28006KT 7000 SCT020 BKN060
PROB30
TEMPO 0318/0324 26015KT 6000 RA BKN030
BECMG 0324/0402 27008KT 9999 FEW020



MET'MAP, your aeronautical weather chart ! - Copyright ORBIFLY December 2007 - Disclaimer

ORBIFLY MET'MAP TEAM :

Programming & Development : Alexandra Zaïnal
Concept & original design : Baudouin d'Aumeries
Assistance for programming : Marc-Olivier Méhu
Technical & hardware support : Manuel Goepfert

Contact : metmap@orbifly.com




SOURCES & CREDITS :

   NOAA